createdAt,value
2023-05-14T00:04:50.066Z,99598.91
2023-05-14T00:09:55.899Z,99593.66
2023-05-14T00:14:59.867Z,99604.84
2023-05-14T00:20:07.340Z,99617.75
2023-05-14T00:25:13.944Z,99629.69
2023-05-14T00:30:18.121Z,99623.72
2023-05-14T00:35:22.953Z,99638.31
2023-05-14T00:40:29.880Z,99626.78
2023-05-14T00:45:34.155Z,99616.56
2023-05-14T00:50:39.226Z,99643.44
2023-05-14T00:55:45.934Z,99647.56
2023-05-14T01:00:50.304Z,99640.16
2023-05-14T01:06:02.801Z,99639.00
2023-05-14T01:11:13.509Z,99638.97
2023-05-14T01:16:20.360Z,99634.72
2023-05-14T01:21:35.963Z,99619.84
2023-05-14T01:26:39.856Z,99617.22
2023-05-14T01:31:47.708Z,99622.28
2023-05-14T01:36:55.077Z,99623.88
2023-05-14T01:41:59.521Z,99620.41
2023-05-14T01:47:04.961Z,99627.22
2023-05-14T01:52:14.317Z,99615.34
2023-05-14T01:57:18.436Z,99610.91
2023-05-14T02:02:23.194Z,99604.66
2023-05-14T02:07:28.988Z,99604.88
2023-05-14T02:12:33.661Z,99619.47
2023-05-14T02:17:38.309Z,99612.16
2023-05-14T02:22:46.444Z,99607.91
2023-05-14T02:27:50.975Z,99612.25
2023-05-14T02:32:55.231Z,99616.72
2023-05-14T02:38:00.969Z,99626.06
2023-05-14T02:43:06.337Z,99618.97
2023-05-14T02:48:10.609Z,99623.34
2023-05-14T02:53:17.105Z,99620.50
2023-05-14T02:58:26.030Z,99629.16
2023-05-14T03:03:33.006Z,99627.66
2023-05-14T03:08:41.813Z,99639.31
2023-05-14T03:13:45.856Z,99649.84
2023-05-14T03:18:50.665Z,99634.56
2023-05-14T03:23:57.473Z,99642.47
2023-05-14T03:29:01.407Z,99626.13
2023-05-14T03:34:05.541Z,99621.00
2023-05-14T03:39:11.493Z,99625.50
2023-05-14T03:44:15.824Z,99630.00
2023-05-14T03:49:20.109Z,99634.66
2023-05-14T03:54:26.296Z,99644.47
2023-05-14T03:59:30.701Z,99638.69
2023-05-14T04:04:34.762Z,99646.00
2023-05-14T04:09:42.025Z,99660.22
2023-05-14T04:14:46.801Z,99663.97
2023-05-14T04:19:51.597Z,99665.00
2023-05-14T04:24:57.837Z,99674.72
2023-05-14T04:30:02.505Z,99674.84
2023-05-14T04:35:10.674Z,99668.88
2023-05-14T04:40:17.134Z,99663.78
2023-05-14T04:45:21.530Z,99671.66
2023-05-14T04:50:27.473Z,99669.03
2023-05-14T04:55:35.464Z,99665.56
2023-05-14T05:00:40.358Z,99670.72
2023-05-14T05:05:45.255Z,99661.94
2023-05-14T05:10:51.349Z,99652.97
2023-05-14T05:15:55.500Z,99646.69
2023-05-14T05:21:00.679Z,99641.16
2023-05-14T05:26:07.470Z,99640.13
2023-05-14T05:31:12.050Z,99625.63
2023-05-14T05:36:16.441Z,99632.47
2023-05-14T05:41:22.742Z,99629.59
2023-05-14T05:46:27.351Z,99623.91
2023-05-14T05:51:32.103Z,99621.06
2023-05-14T05:56:38.140Z,99616.88
2023-05-14T06:01:43.951Z,99618.28
2023-05-14T06:06:48.149Z,99618.13
2023-05-14T06:11:55.565Z,99609.75
2023-05-14T06:17:01.992Z,99601.41
2023-05-14T06:22:07.066Z,99607.09
2023-05-14T06:27:13.919Z,99599.53
2023-05-14T06:32:18.193Z,99604.97
2023-05-14T06:37:23.250Z,99621.22
2023-05-14T06:42:31.038Z,99628.28
2023-05-14T06:47:36.957Z,99641.66
2023-05-14T06:52:41.586Z,99650.34
2023-05-14T07:17:19.768Z,99649.63
2023-05-14T07:22:23.281Z,99653.78
2023-05-14T07:27:27.174Z,99658.09
2023-05-14T07:32:32.322Z,99644.41
2023-05-14T07:37:36.030Z,99651.47
2023-05-14T07:42:39.480Z,99648.78
2023-05-14T07:47:44.609Z,99642.19
2023-05-14T07:52:48.091Z,99646.91
2023-05-14T07:57:51.518Z,99641.69
2023-05-14T08:02:56.885Z,99643.53
2023-05-14T08:08:00.468Z,99644.97
2023-05-14T08:13:03.959Z,99640.59
2023-05-14T08:18:08.924Z,99642.84
2023-05-14T08:23:12.624Z,99635.50
2023-05-14T08:28:15.998Z,99638.66
2023-05-14T08:33:20.822Z,99630.19
2023-05-14T08:38:24.232Z,99625.22
2023-05-14T08:43:31.966Z,99618.09
2023-05-14T08:48:37.883Z,99624.16
2023-05-14T08:53:41.957Z,99601.28
2023-05-14T08:58:45.932Z,99607.75
2023-05-14T09:03:51.791Z,99600.03
2023-05-14T09:08:56.073Z,99594.38
2023-05-14T09:13:59.856Z,99594.66
2023-05-14T09:19:05.133Z,99593.06
2023-05-14T09:24:09.973Z,99591.16
2023-05-14T09:29:13.653Z,99591.09
2023-05-14T09:34:25.485Z,99598.28
2023-05-14T09:39:29.425Z,99589.50
2023-05-14T09:44:33.340Z,99585.53
2023-05-14T09:49:38.178Z,99581.97
2023-05-14T09:54:42.360Z,99575.81
2023-05-14T09:59:45.897Z,99581.72
2023-05-14T10:04:53.147Z,99582.56
2023-05-14T10:10:03.314Z,99573.84
2023-05-14T10:15:18.342Z,99581.31
2023-05-14T10:20:25.279Z,99569.22
2023-05-14T10:25:29.689Z,99574.94
2023-05-14T10:30:33.859Z,99572.78
2023-05-14T10:36:03.631Z,99576.81
2023-05-14T10:41:10.940Z,99568.47
2023-05-14T10:46:16.256Z,99572.06
2023-05-14T10:51:23.228Z,99586.13
2023-05-14T10:56:27.716Z,99577.72
2023-05-14T11:01:32.216Z,99579.97
2023-05-14T11:06:43.369Z,99602.63
2023-05-14T11:11:47.847Z,99586.34
2023-05-14T11:16:52.132Z,99577.00
2023-05-14T11:21:57.965Z,99574.81
2023-05-14T11:27:03.830Z,99572.13
2023-05-14T11:32:08.552Z,99567.69
2023-05-14T11:37:16.520Z,99572.03
2023-05-14T11:42:22.587Z,99564.34
2023-05-14T11:47:26.761Z,99559.78
2023-05-14T11:52:32.917Z,99545.16
2023-05-14T11:57:37.782Z,99531.53
2023-05-14T12:02:42.122Z,99523.88
2023-05-14T12:07:49.293Z,99514.59
2023-05-14T12:12:55.207Z,99492.25
2023-05-14T12:18:02.041Z,99489.59
2023-05-14T12:23:12.009Z,99490.50
2023-05-14T12:28:17.313Z,99486.69
2023-05-14T12:33:23.418Z,99481.94
2023-05-14T12:38:31.732Z,99485.91
2023-05-14T12:43:35.613Z,99480.56
2023-05-14T12:48:41.712Z,99484.38
2023-05-14T12:53:47.986Z,99478.88
2023-05-14T12:58:51.778Z,99472.22
2023-05-14T13:03:55.797Z,99474.03
2023-05-14T13:09:04.234Z,99485.56
2023-05-14T13:14:10.146Z,99504.53
2023-05-14T13:19:16.995Z,99533.31
2023-05-14T13:24:25.348Z,99521.19
2023-05-14T13:29:31.680Z,99489.47
2023-05-14T13:34:35.747Z,99473.22
2023-05-14T13:39:41.798Z,99463.75
2023-05-14T13:44:45.674Z,99444.78
2023-05-14T13:49:49.496Z,99454.19
2023-05-14T13:54:54.739Z,99450.81
2023-05-14T14:00:00.867Z,99451.25
2023-05-14T14:05:14.670Z,99438.13
2023-05-14T14:10:21.019Z,99446.19
2023-05-14T14:15:25.366Z,99437.31
2023-05-14T14:20:32.155Z,99429.75
2023-05-14T14:25:39.020Z,99409.50
2023-05-14T14:30:44.259Z,99401.25
2023-05-14T14:35:48.269Z,99399.53
2023-05-14T14:40:53.850Z,99416.59
2023-05-14T14:46:00.254Z,99418.66
2023-05-14T14:51:05.999Z,99429.00
2023-05-14T14:56:11.754Z,99397.81
2023-05-14T15:01:18.335Z,99375.81
2023-05-14T15:06:23.218Z,99375.06
2023-05-14T15:11:30.218Z,99377.59
2023-05-14T15:16:34.191Z,99388.84
2023-05-14T15:21:38.298Z,99390.25
2023-05-14T15:26:43.957Z,99390.16
2023-05-14T15:31:47.852Z,99385.03
2023-05-14T15:36:51.722Z,99391.56
2023-05-14T15:41:57.394Z,99379.09
2023-05-14T15:47:01.207Z,99382.72
2023-05-14T15:52:05.176Z,99380.44
2023-05-14T15:57:10.504Z,99389.22
2023-05-14T16:02:15.104Z,99377.41
2023-05-14T16:07:18.890Z,99372.28
2023-05-14T16:12:24.561Z,99384.94
2023-05-14T16:17:28.686Z,99382.72
2023-05-14T16:22:34.822Z,99386.16
2023-05-14T16:27:40.678Z,99386.97
2023-05-14T16:32:46.785Z,99389.84
2023-05-14T16:37:51.656Z,99386.44
2023-05-14T16:42:57.215Z,99367.06
2023-05-14T16:48:01.880Z,99377.41
2023-05-14T16:53:05.863Z,99388.19
2023-05-14T16:58:11.398Z,99381.03
2023-05-14T17:03:15.242Z,99392.00
2023-05-14T17:08:19.545Z,99385.44
2023-05-14T17:13:25.260Z,99384.81
2023-05-14T17:18:28.967Z,99390.34
2023-05-14T17:23:32.856Z,99402.81
2023-05-14T17:28:38.280Z,99395.50
2023-05-14T17:33:42.388Z,99384.69
2023-05-14T17:38:46.162Z,99382.13
2023-05-14T17:43:52.604Z,99395.94
2023-05-14T17:48:56.625Z,99391.09
2023-05-14T17:54:03.017Z,99392.97
2023-05-14T17:59:08.223Z,99390.53
2023-05-14T18:04:15.129Z,99394.97
2023-05-14T18:09:19.366Z,99392.28
2023-05-14T18:14:24.738Z,99394.41
2023-05-14T18:19:28.498Z,99404.78
2023-05-14T18:24:32.167Z,99398.88
2023-05-14T18:29:39.690Z,99392.66
2023-05-14T18:34:44.216Z,99397.19
2023-05-14T18:39:48.190Z,99403.47
2023-05-14T18:44:55.012Z,99397.31
2023-05-14T18:50:00.644Z,99402.47
2023-05-14T18:55:07.481Z,99389.41
2023-05-14T19:00:18.136Z,99388.63
2023-05-14T19:05:23.030Z,99384.34
2023-05-14T19:11:25.404Z,99386.88
2023-05-14T19:17:30.848Z,99378.19
2023-05-14T19:23:58.695Z,99370.38
2023-05-14T19:29:49.151Z,99363.50
2023-05-14T19:35:09.170Z,99358.34
2023-05-14T19:40:13.733Z,99336.53
2023-05-14T19:45:19.243Z,99332.97
2023-05-14T19:50:23.338Z,99321.63
2023-05-14T19:55:28.001Z,99319.13
2023-05-14T20:00:35.010Z,99333.00
2023-05-14T20:05:39.815Z,99334.88
2023-05-14T20:10:45.814Z,99316.56
2023-05-14T20:15:52.575Z,99316.66
2023-05-14T20:20:57.638Z,99313.91
2023-05-14T20:26:02.559Z,99300.13
2023-05-14T20:31:09.789Z,99288.75
2023-05-14T20:36:15.243Z,99273.09
2023-05-14T20:41:21.052Z,99264.47
2023-05-14T20:46:27.142Z,99256.66
2023-05-14T20:51:31.914Z,99247.94
2023-05-14T20:56:36.831Z,99244.56
2023-05-14T21:01:42.798Z,99248.97
2023-05-14T21:06:46.995Z,99247.25
2023-05-14T21:11:51.053Z,99255.91
2023-05-14T21:16:57.109Z,99253.38
2023-05-14T21:22:01.142Z,99247.25
2023-05-14T21:27:05.789Z,99259.44
2023-05-14T21:32:12.077Z,99245.59
2023-05-14T21:37:17.596Z,99249.13
2023-05-14T21:42:22.798Z,99239.59
2023-05-14T21:47:29.062Z,99222.13
2023-05-14T21:52:33.782Z,99216.03
2023-05-14T21:57:38.857Z,99215.38
2023-05-14T22:02:45.051Z,99201.34
2023-05-14T22:07:49.804Z,99203.28
2023-05-14T22:12:54.946Z,99193.53
2023-05-14T22:18:01.887Z,99185.66
2023-05-14T22:23:06.502Z,99186.53
2023-05-14T22:28:11.796Z,99178.72
2023-05-14T22:33:19.409Z,99186.50
2023-05-14T22:38:24.805Z,99169.06
2023-05-14T22:43:29.464Z,99170.88
2023-05-14T22:48:35.456Z,99156.19
2023-05-14T22:53:40.790Z,99141.31
2023-05-14T22:58:44.895Z,99143.94
2023-05-14T23:03:51.276Z,99147.47
2023-05-14T23:08:55.428Z,99146.66
2023-05-14T23:13:59.615Z,99152.66
2023-05-14T23:19:05.611Z,99144.84
2023-05-14T23:24:10.323Z,99134.34
2023-05-14T23:29:14.475Z,99116.09
2023-05-14T23:34:22.331Z,99107.28
2023-05-14T23:39:27.998Z,99115.28
2023-05-14T23:44:33.411Z,99116.94
2023-05-14T23:49:40.970Z,99122.09
2023-05-14T23:54:46.100Z,99111.59
2023-05-14T23:59:50.867Z,99111.75
